Time;durP1;ratioP1;P1;durP2;ratioP2;P2;SDS_P1;SDS_P2;PMS_P1;PMS_P2;Temp;Humidity;BMP_temperature;BMP_pressure;BME280_temperature;BME280_humidity;BME280_pressure;Samples;Min_cycle;Max_cycle;Signal;HPM_P1;HPM_P2
2022/01/18 00:00:41;;;;;;;9.40;3.05;;;14.60;88.50;;;;;;2004777;28;20178;-72
2022/01/18 00:01:40;;;;;;;11.23;3.60;;;14.60;87.80;;;;;;1997728;28;20178;-72
2022/01/18 00:02:39;;;;;;;7.50;3.30;;;14.60;87.80;;;;;;1997029;28;20181;-72
2022/01/18 00:03:38;;;;;;;11.18;3.58;;;14.60;87.80;;;;;;1997164;28;20260;-71
2022/01/18 00:04:38;;;;;;;12.80;3.53;;;14.60;87.80;;;;;;1997621;28;20189;-72
2022/01/18 00:05:36;;;;;;;16.15;3.92;;;14.60;87.90;;;;;;1997928;28;20174;-72
2022/01/18 00:06:39;;;;;;;7.20;2.97;;;14.60;87.90;;;;;;1997687;28;20201;-72
2022/01/18 00:07:37;;;;;;;17.52;3.90;;;14.60;88.50;;;;;;2004968;28;20170;-72
2022/01/18 00:08:36;;;;;;;7.30;3.30;;;14.60;87.80;;;;;;2005002;28;20193;-71
2022/01/18 00:09:38;;;;;;;8.97;3.77;;;14.70;88.00;;;;;;1997533;28;20193;-72
2022/01/18 00:10:37;;;;;;;9.88;3.92;;;14.60;87.90;;;;;;1996945;28;20544;-71
2022/01/18 00:11:43;;;;;;;13.10;3.73;;;14.70;88.00;;;;;;1996605;28;20257;-71
2022/01/18 00:12:56;;;;;;;10.20;3.88;;;14.60;87.90;;;;;;1997033;28;20189;-72
2022/01/18 00:14:01;;;;;;;10.85;3.60;;;14.60;87.90;;;;;;1997111;28;20167;-71
2022/01/18 00:16:38;;;;;;;8.52;3.67;;;14.60;88.00;;;;;;1989251;28;20197;-72
2022/01/18 00:17:42;;;;;;;12.40;3.95;;;14.60;88.00;;;;;;1997923;28;20214;-71
2022/01/18 00:18:41;;;;;;;11.23;3.45;;;14.60;88.00;;;;;;1997746;28;20521;-71
2022/01/18 00:19:41;;;;;;;7.87;2.93;;;14.60;88.00;;;;;;1997547;28;20174;-72
2022/01/18 00:22:49;;;;;;;9.35;3.05;;;14.60;88.00;;;;;;2004902;28;20174;-72
2022/01/18 00:23:53;;;;;;;15.10;3.73;;;14.70;88.10;;;;;;2004929;28;20596;-71
2022/01/18 00:24:53;;;;;;;7.28;3.33;;;14.60;87.90;;;;;;1996879;28;20172;-71
2022/01/18 00:25:55;;;;;;;10.35;2.65;;;14.60;87.90;;;;;;1996882;28;20228;-72
2022/01/18 00:26:54;;;;;;;8.02;3.20;;;14.60;88.00;;;;;;1997437;28;20193;-72
2022/01/18 00:27:52;;;;;;;12.57;3.60;;;14.60;87.90;;;;;;1997653;28;20189;-72
2022/01/18 00:28:56;;;;;;;7.43;3.90;;;14.60;88.00;;;;;;1997623;28;20224;-71
2022/01/18 00:30:23;;;;;;;5.07;3.03;;;14.60;88.00;;;;;;1997594;28;20154;-71
2022/01/18 00:32:55;;;;;;;12.82;3.40;;;14.60;88.20;;;;;;2005001;28;20181;-72
2022/01/18 00:34:06;;;;;;;8.98;3.33;;;14.60;88.20;;;;;;1997074;28;20265;-71
2022/01/18 00:35:05;;;;;;;10.90;3.85;;;14.60;88.20;;;;;;1996972;28;20182;-71
2022/01/18 00:36:05;;;;;;;9.47;3.50;;;14.60;88.20;;;;;;1997362;28;20760;-72
2022/01/18 00:38:29;;;;;;;10.43;3.65;;;14.60;88.20;;;;;;1997496;28;20181;-72
2022/01/18 00:39:30;;;;;;;10.48;3.40;;;14.60;88.20;;;;;;1997576;28;20622;-72
2022/01/18 00:40:30;;;;;;;7.97;2.90;;;14.60;88.10;;;;;;2004802;28;20231;-71
2022/01/18 00:41:30;;;;;;;8.10;3.30;;;14.60;88.10;;;;;;2004705;28;20172;-71
2022/01/18 00:42:28;;;;;;;6.25;2.85;;;14.60;88.10;;;;;;1997589;28;20196;-72
2022/01/18 00:43:27;;;;;;;9.67;3.90;;;14.60;88.10;;;;;;1997619;28;20609;-72
2022/01/18 00:44:25;;;;;;;6.80;3.27;;;14.60;88.20;;;;;;1997458;28;20551;-71
2022/01/18 00:45:24;;;;;;;8.20;3.33;;;14.60;88.10;;;;;;1997393;28;20664;-72
2022/01/18 00:46:23;;;;;;;9.43;3.50;;;14.60;88.20;;;;;;1997426;28;20169;-73
2022/01/18 00:47:22;;;;;;;11.68;3.70;;;14.60;88.10;;;;;;1997252;28;20649;-72
2022/01/18 00:48:21;;;;;;;5.80;3.22;;;14.60;88.10;;;;;;1997408;28;20543;-72
2022/01/18 00:49:20;;;;;;;12.23;3.90;;;14.70;88.20;;;;;;1996964;28;20174;-71
2022/01/18 00:50:18;;;;;;;8.60;3.87;;;14.70;88.20;;;;;;1997368;28;20177;-72
2022/01/18 00:51:17;;;;;;;9.47;3.80;;;14.60;88.20;;;;;;2004604;28;20408;-72
2022/01/18 00:52:18;;;;;;;9.20;3.07;;;14.60;88.10;;;;;;2004685;28;20185;-72
2022/01/18 00:53:19;;;;;;;9.68;3.53;;;14.60;88.10;;;;;;1996709;28;20225;-72
2022/01/18 00:54:23;;;;;;;8.93;3.53;;;14.60;88.10;;;;;;1997371;28;20174;-72
2022/01/18 00:55:21;;;;;;;7.53;3.10;;;14.60;88.10;;;;;;1997159;28;20237;-73
2022/01/18 00:56:26;;;;;;;6.87;2.93;;;14.70;88.20;;;;;;1997252;28;20177;-72
2022/01/18 00:57:27;;;;;;;5.35;3.13;;;14.70;88.20;;;;;;1997418;28;20158;-73
2022/01/18 00:58:26;;;;;;;8.05;3.20;;;14.60;88.40;;;;;;1997291;28;20540;-72
2022/01/18 00:59:25;;;;;;;10.07;3.30;;;14.70;88.20;;;;;;1997104;28;20222;-72
2022/01/18 01:00:23;;;;;;;5.70;3.23;;;14.70;88.20;;;;;;1997186;28;20567;-72
2022/01/18 01:01:25;;;;;;;5.40;2.40;;;14.60;88.10;;;;;;1997207;28;20391;-72
2022/01/18 01:02:24;;;;;;;8.15;3.15;;;14.60;88.20;;;;;;1997178;28;20284;-72
2022/01/18 01:03:23;;;;;;;10.00;2.87;;;14.70;88.20;;;;;;1997081;28;20231;-72
2022/01/18 01:04:28;;;;;;;5.18;2.63;;;14.60;88.10;;;;;;1997124;28;20256;-72
2022/01/18 01:05:28;;;;;;;10.88;2.80;;;14.60;88.20;;;;;;1997282;28;20159;-72
2022/01/18 01:06:27;;;;;;;6.95;2.60;;;14.60;88.20;;;;;;1997079;28;20185;-72
2022/01/18 01:07:26;;;;;;;7.10;3.33;;;14.60;88.20;;;;;;1997193;28;20177;-71
2022/01/18 01:08:25;;;;;;;6.70;3.17;;;14.60;88.20;;;;;;1997219;28;20181;-72
2022/01/18 01:09:23;;;;;;;5.77;2.40;;;14.60;88.10;;;;;;1997216;28;20405;-71
2022/01/18 01:10:22;;;;;;;9.17;2.50;;;14.70;88.40;;;;;;1997063;28;20541;-72
2022/01/18 01:11:21;;;;;;;8.30;3.00;;;14.60;88.20;;;;;;1997175;28;20186;-71
2022/01/18 01:12:24;;;;;;;8.43;2.67;;;14.70;88.30;;;;;;1997169;28;20245;-72
2022/01/18 01:13:23;;;;;;;6.53;2.65;;;14.60;88.30;;;;;;1997238;28;20243;-72
2022/01/18 01:14:25;;;;;;;6.63;3.17;;;14.60;88.20;;;;;;1997379;28;20648;-72
2022/01/18 01:15:25;;;;;;;6.32;2.70;;;14.60;88.30;;;;;;1996429;28;20181;-72
2022/01/18 01:17:44;;;;;;;5.15;2.65;;;14.60;88.20;;;;;;1997224;28;20158;-72
2022/01/18 01:36:38;;;;;;;6.28;2.92;;;14.60;88.40;;;;;;1997101;28;20530;-72
2022/01/18 01:41:47;;;;;;;9.70;3.42;;;14.60;88.40;;;;;;1997250;28;20166;-72
2022/01/18 01:42:12;;;;;;;6.30;3.15;;;14.60;88.50;;;;;;2004320;28;20165;-72
2022/01/18 01:43:25;;;;;;;5.72;2.50;;;14.60;88.40;;;;;;1998744;28;20174;-72
2022/01/18 01:44:37;;;;;;;6.93;2.72;;;14.60;88.40;;;;;;1996948;28;20150;-72
2022/01/18 01:45:36;;;;;;;8.88;2.72;;;14.60;88.50;;;;;;1997001;28;20678;-72
2022/01/18 01:46:36;;;;;;;4.03;2.40;;;14.60;88.50;;;;;;1996744;28;20569;-72
2022/01/18 01:47:36;;;;;;;7.57;3.03;;;14.50;88.40;;;;;;2004268;28;20176;-72
2022/01/18 01:48:35;;;;;;;7.20;2.53;;;14.60;88.40;;;;;;2004238;28;20536;-72
2022/01/18 01:49:34;;;;;;;4.07;2.90;;;14.60;88.30;;;;;;1996848;28;20178;-73
2022/01/18 01:50:50;;;;;;;5.85;2.80;;;14.60;88.40;;;;;;1996745;28;20186;-72
2022/01/18 01:51:50;;;;;;;10.07;3.55;;;14.60;88.40;;;;;;1996946;28;20159;-72
2022/01/18 01:52:51;;;;;;;5.10;2.55;;;14.60;88.50;;;;;;1996925;28;20170;-72
2022/01/18 01:53:50;;;;;;;6.50;2.58;;;14.60;88.50;;;;;;1996936;28;20660;-72
2022/01/18 01:54:49;;;;;;;7.43;2.90;;;14.60;88.50;;;;;;1996241;28;20185;-71
2022/01/18 01:55:48;;;;;;;4.70;3.07;;;14.70;88.50;;;;;;1996182;28;20648;-72
2022/01/18 01:56:47;;;;;;;7.32;2.70;;;14.60;88.40;;;;;;1996688;28;20429;-72
2022/01/18 01:57:47;;;;;;;10.50;4.00;;;14.60;88.40;;;;;;1996712;28;20536;-72
2022/01/18 01:58:45;;;;;;;7.72;3.20;;;14.60;88.40;;;;;;1996787;28;20181;-73
2022/01/18 01:59:44;;;;;;;9.27;3.20;;;14.60;88.40;;;;;;1996881;28;20174;-72
2022/01/18 02:00:47;;;;;;;6.83;2.60;;;14.60;88.40;;;;;;1996536;28;20233;-72
2022/01/18 02:01:47;;;;;;;5.97;2.70;;;14.60;88.40;;;;;;1996507;28;20527;-72
2022/01/18 02:02:46;;;;;;;5.05;2.13;;;14.70;88.50;;;;;;1996850;28;20630;-72
2022/01/18 02:03:46;;;;;;;4.90;2.78;;;14.60;88.40;;;;;;1996946;28;20180;-72
2022/01/18 02:04:45;;;;;;;4.90;2.22;;;14.60;88.50;;;;;;1996910;28;20185;-72
2022/01/18 02:05:44;;;;;;;6.43;3.00;;;14.60;88.40;;;;;;1996861;28;20558;-72
2022/01/18 02:06:43;;;;;;;5.88;2.30;;;14.60;88.50;;;;;;1996780;28;20201;-72
2022/01/18 02:07:41;;;;;;;4.90;2.40;;;14.60;88.40;;;;;;1996894;28;20285;-72
2022/01/18 02:08:40;;;;;;;5.10;2.43;;;14.60;88.50;;;;;;1996847;28;20496;-72
2022/01/18 02:09:38;;;;;;;8.60;3.13;;;14.60;88.40;;;;;;1996873;28;20625;-72
2022/01/18 02:10:41;;;;;;;7.57;3.10;;;14.60;88.40;;;;;;2003941;28;20181;-72
2022/01/18 02:11:41;;;;;;;5.80;2.60;;;14.60;88.40;;;;;;2004122;28;20212;-72
2022/01/18 02:12:40;;;;;;;7.90;2.95;;;14.60;88.50;;;;;;1996824;28;20228;-71
2022/01/18 02:13:40;;;;;;;4.68;2.40;;;14.60;88.50;;;;;;1996729;28;20197;-72
2022/01/18 02:14:46;;;;;;;5.57;2.90;;;14.60;88.50;;;;;;2003999;28;20196;-72
2022/01/18 02:21:46;;;;;;;9.43;3.15;;;14.60;88.70;;;;;;1996811;28;20205;-71
2022/01/18 02:22:27;;;;;;;6.13;2.72;;;14.60;88.70;;;;;;1996487;28;20283;-72
2022/01/18 02:23:26;;;;;;;6.83;3.00;;;14.60;88.60;;;;;;1996697;28;20232;-72
2022/01/18 02:24:24;;;;;;;7.93;2.70;;;14.60;88.60;;;;;;1996120;28;20181;-72
2022/01/18 02:25:24;;;;;;;4.63;2.67;;;14.60;88.70;;;;;;1996252;28;20268;-72
2022/01/18 02:26:22;;;;;;;6.28;2.60;;;14.60;88.60;;;;;;1996683;28;20182;-72
2022/01/18 02:27:21;;;;;;;4.43;2.20;;;14.60;88.60;;;;;;1996796;28;20178;-72
2022/01/18 02:28:20;;;;;;;8.30;2.30;;;14.60;88.60;;;;;;1996841;28;20177;-72
2022/01/18 02:29:19;;;;;;;5.55;2.35;;;14.60;88.60;;;;;;1996763;28;20492;-72
2022/01/18 02:30:18;;;;;;;6.30;2.50;;;14.60;88.60;;;;;;1996142;28;20318;-72
2022/01/18 02:31:19;;;;;;;5.33;2.40;;;14.70;88.80;;;;;;1996258;28;20413;-72
2022/01/18 02:32:17;;;;;;;8.93;3.00;;;14.60;88.60;;;;;;1996251;28;20735;-72
2022/01/18 02:33:16;;;;;;;5.30;2.57;;;14.60;88.60;;;;;;1996129;28;20609;-72
2022/01/18 02:34:18;;;;;;;5.43;2.60;;;14.60;88.50;;;;;;1996611;28;20181;-72
2022/01/18 02:35:16;;;;;;;9.45;2.47;;;14.60;88.60;;;;;;1996584;28;20166;-72
2022/01/18 02:36:15;;;;;;;7.43;2.63;;;14.60;88.60;;;;;;2003935;28;20697;-71
2022/01/18 02:37:15;;;;;;;6.90;2.27;;;14.60;88.60;;;;;;2004189;28;20169;-71
2022/01/18 02:38:13;;;;;;;5.57;2.38;;;14.60;88.50;;;;;;1996966;28;20166;-72
2022/01/18 02:39:14;;;;;;;8.90;2.67;;;14.60;88.60;;;;;;2003922;28;20173;-72
2022/01/18 02:40:13;;;;;;;3.92;2.30;;;14.70;88.60;;;;;;2003927;28;20641;-72
2022/01/18 02:41:25;;;;;;;5.00;2.43;;;14.60;88.50;;;;;;1997004;28;20185;-72
2022/01/18 02:42:31;;;;;;;7.90;2.60;;;14.60;88.60;;;;;;1996762;28;20146;-72
2022/01/18 02:43:50;;;;;;;5.32;2.58;;;14.60;88.60;;;;;;1996653;28;20257;-72
2022/01/18 02:44:50;;;;;;;4.00;2.45;;;14.60;88.60;;;;;;1996725;28;20208;-72
2022/01/18 02:45:50;;;;;;;4.05;2.35;;;14.60;88.60;;;;;;1996705;28;20170;-72
2022/01/18 02:46:49;;;;;;;5.63;2.75;;;14.60;88.70;;;;;;2003724;28;20296;-72
2022/01/18 02:47:47;;;;;;;4.63;2.23;;;14.60;88.70;;;;;;2003855;28;20235;-72
2022/01/18 02:48:48;;;;;;;8.20;2.90;;;14.60;88.70;;;;;;1997029;28;20174;-72
2022/01/18 02:49:48;;;;;;;5.45;2.38;;;14.60;88.70;;;;;;1996733;28;20178;-72
2022/01/18 02:50:47;;;;;;;3.72;2.05;;;14.60;88.70;;;;;;1996609;28;20186;-72
2022/01/18 02:51:47;;;;;;;4.20;2.20;;;14.60;88.60;;;;;;1996557;28;20275;-72
2022/01/18 02:52:47;;;;;;;7.30;2.85;;;14.60;88.70;;;;;;1996658;28;20178;-72
2022/01/18 02:54:07;;;;;;;4.68;2.95;;;14.60;88.70;;;;;;2003762;28;20787;-72
2022/01/18 02:55:06;;;;;;;3.58;2.03;;;14.60;88.60;;;;;;2001962;28;20176;-71
2022/01/18 02:56:04;;;;;;;5.85;2.50;;;14.60;88.70;;;;;;1996483;28;20225;-71
2022/01/18 02:57:06;;;;;;;4.90;2.00;;;14.60;88.70;;;;;;1996845;28;20182;-71
2022/01/18 02:58:09;;;;;;;4.00;1.80;;;14.60;88.80;;;;;;1996649;28;20190;-72
2022/01/18 02:59:31;;;;;;;4.95;2.58;;;14.60;88.70;;;;;;1996570;28;20311;-71
2022/01/18 03:03:38;;;;;;;6.00;2.60;;;14.60;88.80;;;;;;1995863;28;20264;-72
2022/01/18 03:04:42;;;;;;;3.70;2.20;;;14.60;88.90;;;;;;1995506;28;20325;-71
2022/01/18 03:05:43;;;;;;;2.80;2.03;;;14.60;89.00;;;;;;1995784;28;20205;-70
2022/01/18 03:06:43;;;;;;;5.07;2.10;;;14.60;88.80;;;;;;1995811;28;20204;-71
2022/01/18 03:07:42;;;;;;;3.95;2.30;;;14.60;88.80;;;;;;1996700;28;20181;-71
2022/01/18 03:08:41;;;;;;;5.85;2.30;;;14.60;88.80;;;;;;1996492;28;20232;-73
2022/01/18 03:09:40;;;;;;;5.88;2.53;;;14.60;88.70;;;;;;1996632;28;20182;-71
2022/01/18 03:10:41;;;;;;;7.60;2.60;;;14.70;88.80;;;;;;2003744;28;20189;-71
2022/01/18 03:11:39;;;;;;;4.95;2.35;;;14.60;88.80;;;;;;2003761;28;20582;-71
2022/01/18 03:12:38;;;;;;;5.23;2.30;;;14.60;88.80;;;;;;1996863;28;20177;-71
2022/01/18 03:13:36;;;;;;;3.83;1.97;;;14.60;88.80;;;;;;1997995;28;20205;-71
2022/01/18 03:14:35;;;;;;;4.10;2.50;;;14.60;88.80;;;;;;1998105;28;20178;-72
2022/01/18 03:15:37;;;;;;;4.63;2.47;;;14.60;88.70;;;;;;1997986;28;20185;-71
2022/01/18 03:16:36;;;;;;;5.93;2.20;;;14.60;88.70;;;;;;1997939;28;20433;-72
2022/01/18 03:17:35;;;;;;;4.90;1.83;;;14.60;88.80;;;;;;1998046;28;20178;-71
2022/01/18 03:18:35;;;;;;;9.90;2.30;;;14.60;88.80;;;;;;1998042;28;20201;-72
2022/01/18 03:19:34;;;;;;;4.32;2.40;;;14.60;88.80;;;;;;2005268;28;20181;-72
2022/01/18 03:20:33;;;;;;;5.50;2.08;;;14.60;88.80;;;;;;2005068;28;20319;-72
2022/01/18 03:21:32;;;;;;;5.17;2.30;;;14.60;88.80;;;;;;1997698;28;20186;-71
2022/01/18 03:22:31;;;;;;;4.57;2.22;;;14.60;88.70;;;;;;1997528;28;20189;-71
2022/01/18 03:23:29;;;;;;;3.77;2.83;;;14.60;88.70;;;;;;1997949;28;20185;-71
2022/01/18 03:25:41;;;;;;;5.33;2.30;;;14.60;88.70;;;;;;1997927;28;20173;-72
2022/01/18 03:28:04;;;;;;;2.92;1.70;;;14.60;88.80;;;;;;1998166;28;20522;-71
2022/01/18 03:29:03;;;;;;;7.75;2.30;;;14.60;88.80;;;;;;1997255;28;20181;-72
2022/01/18 03:30:05;;;;;;;8.13;2.70;;;14.60;88.80;;;;;;1997357;28;20217;-71
2022/01/18 03:31:05;;;;;;;4.13;2.17;;;14.60;88.80;;;;;;1997911;28;20174;-72
2022/01/18 03:32:04;;;;;;;5.50;2.22;;;14.60;88.80;;;;;;1997894;28;20328;-72
2022/01/18 03:33:04;;;;;;;4.07;2.20;;;14.60;88.90;;;;;;1997694;28;20182;-72
2022/01/18 03:34:03;;;;;;;4.40;2.38;;;14.60;88.80;;;;;;1997775;28;20546;-71
2022/01/18 03:35:03;;;;;;;5.43;2.40;;;14.60;88.80;;;;;;1997199;28;20178;-72
2022/01/18 03:36:05;;;;;;;2.80;2.13;;;14.60;88.80;;;;;;1997191;28;20264;-71
2022/01/18 03:37:04;;;;;;;4.70;2.38;;;14.60;88.80;;;;;;1997266;28;20232;-71
2022/01/18 03:38:03;;;;;;;6.00;2.30;;;14.60;88.80;;;;;;1997538;28;20173;-72
2022/01/18 03:39:01;;;;;;;7.35;2.67;;;14.60;88.90;;;;;;1997874;28;20178;-72
2022/01/18 03:40:00;;;;;;;3.83;2.10;;;14.60;88.90;;;;;;1997881;28;20689;-71
2022/01/18 03:41:03;;;;;;;5.77;2.17;;;14.60;88.80;;;;;;2005083;28;20557;-72
2022/01/18 03:42:32;;;;;;;4.90;1.90;;;14.60;88.90;;;;;;1997183;28;20253;-71
2022/01/18 03:43:20;;;;;;;4.05;2.10;;;14.60;88.90;;;;;;1997393;28;20253;-71
2022/01/18 03:44:19;;;;;;;4.30;2.30;;;14.60;88.90;;;;;;1998019;28;20608;-71
2022/01/18 03:45:31;;;;;;;4.45;2.20;;;14.60;89.00;;;;;;1997740;28;20654;-72
2022/01/18 03:46:31;;;;;;;3.40;1.90;;;14.60;88.80;;;;;;1997801;28;20557;-72
2022/01/18 03:47:32;;;;;;;4.28;2.30;;;14.60;89.00;;;;;;1997873;28;20181;-72
2022/01/18 03:48:35;;;;;;;4.63;2.22;;;14.60;88.90;;;;;;1997820;28;20186;-72
2022/01/18 03:49:36;;;;;;;3.00;1.60;;;14.60;89.00;;;;;;1997837;28;20518;-72
2022/01/18 03:50:36;;;;;;;4.50;2.65;;;14.60;88.90;;;;;;1997893;28;20649;-72
2022/01/18 03:51:34;;;;;;;2.72;1.83;;;14.60;88.90;;;;;;2005142;28;20606;-71
2022/01/18 03:52:33;;;;;;;3.00;1.87;;;14.60;88.90;;;;;;2005061;28;20185;-71
2022/01/18 03:53:32;;;;;;;4.47;1.70;;;14.60;89.00;;;;;;1997383;28;20303;-72
2022/01/18 03:54:30;;;;;;;6.40;2.27;;;14.60;88.90;;;;;;1997305;28;20653;-72
2022/01/18 03:55:29;;;;;;;7.93;2.40;;;14.60;88.90;;;;;;1997498;28;20769;-73
2022/01/18 03:56:28;;;;;;;3.50;1.90;;;14.60;88.90;;;;;;1997697;28;20261;-71
2022/01/18 03:57:28;;;;;;;6.10;1.90;;;14.60;88.90;;;;;;2004889;28;20196;-72
2022/01/18 03:58:26;;;;;;;3.72;2.00;;;14.60;88.90;;;;;;2005083;28;20211;-71
2022/01/18 03:59:25;;;;;;;4.73;1.87;;;14.60;89.60;;;;;;1998194;28;20249;-72
2022/01/18 04:00:26;;;;;;;4.73;2.40;;;14.60;88.90;;;;;;1997157;28;20173;-72
2022/01/18 04:01:25;;;;;;;5.38;2.38;;;14.60;89.00;;;;;;1997136;28;20162;-72
2022/01/18 04:02:24;;;;;;;3.83;2.20;;;14.60;88.90;;;;;;1997676;28;20174;-72
2022/01/18 04:03:22;;;;;;;5.00;1.97;;;14.60;88.90;;;;;;2004871;28;20188;-72
2022/01/18 04:04:21;;;;;;;3.47;1.67;;;14.60;89.00;;;;;;2004874;28;20550;-72
2022/01/18 04:05:20;;;;;;;10.30;2.30;;;14.60;89.00;;;;;;1998248;28;20208;-72
2022/01/18 04:06:18;;;;;;;5.13;2.20;;;14.60;89.00;;;;;;1997696;28;20715;-72
2022/01/18 04:07:18;;;;;;;3.33;2.27;;;14.60;89.00;;;;;;1997586;28;20244;-71
2022/01/18 04:08:17;;;;;;;6.32;2.70;;;14.60;88.90;;;;;;1997592;28;20169;-71
2022/01/18 04:09:16;;;;;;;6.40;2.33;;;14.60;89.00;;;;;;1997702;28;20174;-72
2022/01/18 04:10:15;;;;;;;7.15;2.55;;;14.60;89.00;;;;;;1997764;28;20174;-72
2022/01/18 04:11:13;;;;;;;4.50;1.67;;;14.60;89.00;;;;;;1997741;28;20182;-72
2022/01/18 04:12:12;;;;;;;3.67;2.10;;;14.50;88.90;;;;;;1997782;28;20209;-72
2022/01/18 04:13:13;;;;;;;4.50;2.20;;;14.50;89.00;;;;;;1997565;28;20181;-72
2022/01/18 04:14:12;;;;;;;4.15;2.10;;;14.50;89.00;;;;;;1997835;28;20162;-72
2022/01/18 04:15:13;;;;;;;2.73;1.90;;;14.50;89.10;;;;;;1997723;28;20269;-72
2022/01/18 04:16:11;;;;;;;4.20;2.17;;;14.50;89.10;;;;;;1997482;28;20166;-72
2022/01/18 04:18:31;;;;;;;3.58;1.70;;;14.60;89.20;;;;;;1997727;28;20594;-72
2022/01/18 04:27:08;;;;;;;5.13;1.98;;;14.50;89.10;;;;;;1996824;28;20240;-72
2022/01/18 04:28:17;;;;;;;5.50;2.20;;;14.50;89.10;;;;;;1996875;28;20178;-72
2022/01/18 04:29:16;;;;;;;2.95;2.40;;;14.50;89.20;;;;;;1996594;28;20182;-72
2022/01/18 04:30:15;;;;;;;2.78;1.75;;;14.50;89.20;;;;;;1996867;28;20535;-72
2022/01/18 04:31:13;;;;;;;4.13;2.00;;;14.60;89.20;;;;;;1996684;28;20174;-71
2022/01/18 04:32:12;;;;;;;2.10;1.67;;;14.50;89.00;;;;;;1997255;28;20641;-72
2022/01/18 04:33:10;;;;;;;2.80;1.70;;;14.50;89.00;;;;;;1997478;28;20180;-72
2022/01/18 04:34:09;;;;;;;3.20;2.07;;;14.50;89.00;;;;;;2004752;28;20174;-71
2022/01/18 04:35:08;;;;;;;3.63;2.07;;;14.60;89.10;;;;;;1996837;28;20178;-72
2022/01/18 04:36:08;;;;;;;4.27;1.60;;;14.50;89.00;;;;;;1996810;28;20261;-72
2022/01/18 04:37:07;;;;;;;3.42;1.83;;;14.60;89.10;;;;;;1997558;28;20261;-71
2022/01/18 04:38:05;;;;;;;2.85;1.90;;;14.60;89.10;;;;;;1997721;28;20648;-72
2022/01/18 04:39:04;;;;;;;3.50;1.67;;;14.60;89.10;;;;;;1997280;28;20181;-72
2022/01/18 04:40:11;;;;;;;4.37;2.20;;;14.50;89.00;;;;;;2004773;28;20185;-72
2022/01/18 04:41:14;;;;;;;2.63;1.80;;;14.60;89.00;;;;;;2004194;28;20307;-72
2022/01/18 04:42:18;;;;;;;2.72;1.83;;;14.60;89.00;;;;;;2004691;28;20162;-72
2022/01/18 04:43:24;;;;;;;4.28;1.95;;;14.60;89.10;;;;;;2004170;28;20146;-71
2022/01/18 04:48:26;;;;;;;3.25;2.47;;;14.50;89.10;;;;;;1997406;28;20146;-72
2022/01/18 04:49:25;;;;;;;3.15;1.50;;;14.40;89.10;;;;;;1997651;28;20564;-72
2022/01/18 04:50:23;;;;;;;6.77;1.97;;;14.50;89.30;;;;;;1997366;28;20182;-73
2022/01/18 04:51:22;;;;;;;3.57;1.57;;;14.50;89.30;;;;;;1997323;28;20170;-72
2022/01/18 04:52:20;;;;;;;4.17;1.83;;;14.50;89.20;;;;;;1997154;28;20719;-72
2022/01/18 04:53:20;;;;;;;3.20;2.33;;;14.50;89.20;;;;;;1997321;28;20208;-72
2022/01/18 04:54:18;;;;;;;3.97;2.20;;;14.50;89.20;;;;;;2004676;28;20169;-72
2022/01/18 04:55:18;;;;;;;2.53;1.80;;;14.50;89.10;;;;;;2004725;28;20209;-72
2022/01/18 04:56:26;;;;;;;4.97;1.92;;;14.60;89.10;;;;;;1997316;28;20240;-72
2022/01/18 04:58:42;;;;;;;3.88;1.77;;;14.50;89.10;;;;;;1996877;28;20150;-72
2022/01/18 04:59:41;;;;;;;2.83;2.08;;;14.50;89.00;;;;;;1997465;28;20223;-71
2022/01/18 05:00:40;;;;;;;3.17;1.65;;;14.50;89.00;;;;;;2004602;28;20656;-72
2022/01/18 05:01:41;;;;;;;3.20;1.70;;;14.50;89.10;;;;;;2004628;28;20177;-72
2022/01/18 05:02:39;;;;;;;3.30;1.95;;;14.60;89.10;;;;;;1997378;28;20231;-72
2022/01/18 05:03:38;;;;;;;3.70;1.77;;;14.60;89.10;;;;;;1997402;28;20177;-71
2022/01/18 05:04:37;;;;;;;2.50;1.60;;;14.50;89.10;;;;;;1997071;28;20588;-72
2022/01/18 05:05:37;;;;;;;5.07;2.03;;;14.50;89.10;;;;;;1997271;28;20260;-72
2022/01/18 05:06:35;;;;;;;4.80;1.85;;;14.50;89.10;;;;;;1997168;28;20580;-71
2022/01/18 05:07:34;;;;;;;5.90;2.00;;;14.50;89.10;;;;;;1997442;28;20178;-72
2022/01/18 05:08:32;;;;;;;3.80;1.70;;;14.50;89.20;;;;;;1997152;28;20639;-72
2022/01/18 05:09:31;;;;;;;2.37;1.60;;;14.50;89.10;;;;;;1997242;28;20633;-72
2022/01/18 05:10:32;;;;;;;4.50;1.73;;;14.50;89.10;;;;;;1997293;28;20189;-72
2022/01/18 05:11:35;;;;;;;4.97;2.08;;;14.50;89.20;;;;;;1997169;28;20257;-71
2022/01/18 05:12:44;;;;;;;4.50;2.00;;;14.50;89.20;;;;;;1997236;28;20170;-72
2022/01/18 05:14:56;;;;;;;3.60;1.90;;;14.50;89.30;;;;;;1997271;28;20159;-72
2022/01/18 05:16:08;;;;;;;3.30;1.67;;;14.60;89.30;;;;;;1997232;28;20208;-72
2022/01/18 05:17:39;;;;;;;2.08;1.55;;;14.60;89.20;;;;;;1997445;28;20710;-72
2022/01/18 05:21:09;;;;;;;4.28;2.00;;;14.60;89.10;;;;;;1997908;28;20249;-73
2022/01/18 05:21:34;;;;;;;2.25;1.60;;;14.60;89.10;;;;;;1996737;28;20181;-72
2022/01/18 05:23:50;;;;;;;5.78;2.05;;;14.60;89.30;;;;;;1997254;28;20565;-72
2022/01/18 05:24:48;;;;;;;5.70;2.00;;;14.50;89.30;;;;;;1997208;28;20174;-72
2022/01/18 05:25:47;;;;;;;2.90;1.47;;;14.60;89.40;;;;;;2004497;28;20227;-72
2022/01/18 05:26:45;;;;;;;2.93;1.47;;;14.60;89.50;;;;;;1996561;28;20225;-72
2022/01/18 05:27:44;;;;;;;3.17;1.50;;;14.60;89.50;;;;;;1996669;28;20177;-72
2022/01/18 05:28:42;;;;;;;7.10;1.80;;;14.60;89.50;;;;;;1997097;28;20232;-72
2022/01/18 05:29:41;;;;;;;3.17;1.73;;;14.60;89.60;;;;;;1997105;28;20185;-72
2022/01/18 05:30:40;;;;;;;3.03;1.60;;;14.60;89.60;;;;;;1997249;28;20181;-72
2022/01/18 05:31:39;;;;;;;2.33;1.83;;;14.60;89.70;;;;;;1997212;28;20181;-72
2022/01/18 05:32:38;;;;;;;4.50;1.90;;;14.60;89.80;;;;;;1997159;28;20184;-71
2022/01/18 05:33:38;;;;;;;4.37;1.73;;;14.60;89.80;;;;;;2004482;28;20759;-72
2022/01/18 05:34:37;;;;;;;3.35;2.20;;;14.60;89.70;;;;;;2004581;28;20173;-72
2022/01/18 05:35:36;;;;;;;3.43;1.93;;;14.60;89.80;;;;;;1997426;28;20196;-72
2022/01/18 05:36:36;;;;;;;7.82;1.80;;;14.60;89.80;;;;;;1997150;28;20562;-72
2022/01/18 05:37:35;;;;;;;3.53;1.73;;;14.60;89.90;;;;;;1997044;28;20182;-72
2022/01/18 05:38:35;;;;;;;2.70;2.10;;;14.60;90.00;;;;;;1997090;28;20651;-72
2022/01/18 05:39:35;;;;;;;2.40;1.60;;;14.60;90.00;;;;;;1997343;28;20202;-72
2022/01/18 05:40:33;;;;;;;3.60;1.88;;;14.60;90.00;;;;;;1997163;28;20174;-72
2022/01/18 05:41:32;;;;;;;3.90;1.80;;;14.70;90.00;;;;;;2004386;28;20211;-72
2022/01/18 05:42:31;;;;;;;4.27;1.90;;;14.60;90.00;;;;;;2004646;28;20612;-72
2022/01/18 05:43:29;;;;;;;3.43;2.10;;;14.70;90.00;;;;;;1997401;28;20492;-72
2022/01/18 05:44:28;;;;;;;2.40;1.90;;;14.70;90.00;;;;;;1997224;28;20178;-72
2022/01/18 05:45:26;;;;;;;2.17;1.50;;;14.70;90.00;;;;;;1996523;28;20225;-72
2022/01/18 05:46:25;;;;;;;4.80;1.70;;;14.70;90.00;;;;;;1996521;28;20194;-72
2022/01/18 05:47:24;;;;;;;5.23;1.97;;;14.70;90.00;;;;;;1997366;28;20540;-72
2022/01/18 05:48:23;;;;;;;3.38;1.90;;;14.70;90.00;;;;;;1997079;28;20185;-72
2022/01/18 05:49:21;;;;;;;2.60;1.50;;;14.70;90.00;;;;;;2004275;28;20575;-72
2022/01/18 05:50:20;;;;;;;3.00;1.50;;;14.70;90.00;;;;;;1996599;28;20355;-72
2022/01/18 05:51:18;;;;;;;1.90;1.33;;;14.70;90.00;;;;;;1996596;28;20200;-72
2022/01/18 05:52:17;;;;;;;4.73;2.00;;;14.80;90.30;;;;;;1996409;28;20651;-72
2022/01/18 05:53:15;;;;;;;3.83;1.87;;;14.70;89.90;;;;;;1996586;28;20656;-72
2022/01/18 05:54:14;;;;;;;3.50;1.60;;;14.70;89.90;;;;;;1997050;28;20341;-72
2022/01/18 05:55:14;;;;;;;3.83;1.67;;;14.70;89.90;;;;;;1996944;28;20267;-72
2022/01/18 05:56:13;;;;;;;5.85;2.03;;;14.70;89.80;;;;;;1996247;28;20240;-72
2022/01/18 05:57:12;;;;;;;4.13;1.63;;;14.70;89.90;;;;;;1996641;28;20675;-72
2022/01/18 05:58:10;;;;;;;2.47;1.40;;;14.70;89.90;;;;;;1997272;28;20194;-72
2022/01/18 05:59:10;;;;;;;2.80;1.53;;;14.70;89.90;;;;;;1997075;28;20574;-72
2022/01/18 06:00:18;;;;;;;2.88;2.08;;;14.70;89.80;;;;;;1997115;28;20173;-72
2022/01/18 06:01:25;;;;;;;5.72;2.03;;;14.70;89.70;;;;;;1997067;28;20186;-72
2022/01/18 06:02:41;;;;;;;3.20;1.90;;;14.80;89.80;;;;;;1997206;28;20146;-72
2022/01/18 06:04:04;;;;;;;5.95;2.15;;;14.70;89.70;;;;;;1997522;28;20185;-72
2022/01/18 06:07:35;;;;;;;2.15;1.65;;;14.70;89.80;;;;;;1996981;28;20166;-73
2022/01/18 06:08:33;;;;;;;2.50;1.60;;;14.70;89.70;;;;;;1996313;28;20194;-73
2022/01/18 06:09:32;;;;;;;3.70;1.93;;;14.70;89.70;;;;;;1996726;28;20417;-72
2022/01/18 06:10:31;;;;;;;5.35;2.35;;;14.70;89.70;;;;;;1997203;28;20189;-73
2022/01/18 06:11:29;;;;;;;4.50;1.77;;;14.70;89.70;;;;;;1997195;28;20196;-73
2022/01/18 06:12:29;;;;;;;6.70;2.00;;;14.80;89.80;;;;;;1997565;28;20185;-73
2022/01/18 06:13:28;;;;;;;4.88;1.88;;;14.70;89.70;;;;;;1997035;28;20201;-72
2022/01/18 06:14:28;;;;;;;3.05;1.40;;;14.80;89.80;;;;;;1997154;28;20253;-73
2022/01/18 06:15:26;;;;;;;5.15;2.10;;;14.80;89.80;;;;;;1996973;28;20254;-73
2022/01/18 06:16:26;;;;;;;6.83;2.50;;;14.80;89.80;;;;;;1997211;28;20193;-73
2022/01/18 06:17:25;;;;;;;4.18;2.17;;;14.80;89.80;;;;;;1997009;28;20166;-73